createdAt,value
2019-02-10T00:02:14.943Z,9.53
2019-02-10T00:04:45.339Z,6.30
2019-02-10T00:07:15.826Z,8.53
2019-02-10T00:09:46.455Z,2.23
2019-02-10T00:12:17.078Z,9.27
2019-02-10T00:14:48.837Z,5.90
2019-02-10T00:17:19.305Z,7.90
2019-02-10T00:19:49.687Z,7.13
2019-02-10T00:22:20.231Z,9.47
2019-02-10T00:24:54.282Z,8.30
2019-02-10T00:27:24.793Z,9.57
2019-02-10T00:29:55.421Z,4.33
2019-02-10T00:32:25.986Z,4.23
2019-02-10T00:34:56.405Z,5.63
2019-02-10T00:37:26.810Z,6.63
2019-02-10T00:39:57.207Z,3.70
2019-02-10T00:42:27.632Z,12.10
2019-02-10T00:44:57.998Z,3.53
2019-02-10T00:47:28.353Z,8.70
2019-02-10T00:49:58.698Z,9.40
2019-02-10T00:52:29.089Z,5.80
2019-02-10T00:54:59.574Z,6.70
2019-02-10T00:57:30.152Z,12.13
2019-02-10T01:00:00.550Z,7.20
2019-02-10T01:02:31.436Z,5.13
2019-02-10T01:05:02.124Z,10.90
2019-02-10T01:07:32.764Z,7.03
2019-02-10T01:10:03.168Z,9.37
2019-02-10T01:12:33.562Z,7.37
2019-02-10T01:15:03.868Z,7.00
2019-02-10T01:17:34.475Z,6.17
2019-02-10T01:20:04.907Z,6.33
2019-02-10T01:22:35.272Z,6.33
2019-02-10T01:25:05.821Z,6.97
2019-02-10T01:27:36.268Z,11.87
2019-02-10T01:30:07.479Z,10.40
2019-02-10T01:32:37.933Z,12.10
2019-02-10T01:35:08.376Z,6.87
2019-02-10T01:37:39.507Z,13.67
2019-02-10T01:40:11.291Z,7.70
2019-02-10T01:42:42.182Z,9.93
2019-02-10T01:45:13.168Z,7.47
2019-02-10T01:47:43.548Z,9.53
2019-02-10T01:50:13.919Z,8.23
2019-02-10T01:52:44.322Z,10.97
2019-02-10T01:55:15.208Z,8.87
2019-02-10T01:57:46.072Z,6.83
2019-02-10T02:00:17.352Z,9.97
2019-02-10T02:02:47.660Z,7.27
2019-02-10T02:05:18.119Z,10.07
2019-02-10T02:07:48.762Z,11.53
2019-02-10T02:10:19.132Z,10.77
2019-02-10T02:12:50.028Z,9.47
2019-02-10T02:15:20.442Z,11.37
2019-02-10T02:17:50.826Z,7.93
2019-02-10T02:20:21.131Z,13.00
2019-02-10T02:22:51.537Z,9.00
2019-02-10T02:25:21.832Z,11.67
2019-02-10T02:27:52.632Z,6.27
2019-02-10T02:30:23.108Z,9.73
2019-02-10T02:32:53.502Z,15.03
2019-02-10T02:35:23.853Z,13.43
2019-02-10T02:37:54.547Z,9.27
2019-02-10T02:40:24.901Z,12.03
2019-02-10T02:42:55.351Z,18.90
2019-02-10T02:45:25.743Z,11.77
2019-02-10T02:47:56.056Z,7.20
2019-02-10T02:50:28.086Z,10.23
2019-02-10T02:52:58.427Z,11.93
2019-02-10T02:55:28.889Z,12.43
2019-02-10T02:57:59.511Z,10.93
2019-02-10T03:00:29.888Z,11.50
2019-02-10T03:03:05.152Z,11.47
2019-02-10T03:05:45.072Z,12.67
2019-02-10T03:08:15.645Z,12.17
2019-02-10T03:10:46.451Z,11.37
2019-02-10T03:13:16.961Z,10.13
2019-02-10T03:15:47.297Z,21.63
2019-02-10T03:18:18.211Z,15.53
2019-02-10T03:20:48.995Z,11.53
2019-02-10T03:23:19.365Z,21.53
2019-02-10T03:25:49.771Z,15.83
2019-02-10T03:28:20.082Z,5.60
2019-02-10T03:30:50.383Z,10.93
2019-02-10T03:33:20.775Z,16.47
2019-02-10T03:35:51.124Z,11.63
2019-02-10T03:38:22.922Z,11.37
2019-02-10T03:40:53.193Z,12.80
2019-02-10T03:43:23.600Z,15.43
2019-02-10T03:45:54.522Z,12.93
2019-02-10T03:48:24.916Z,12.13
2019-02-10T03:50:55.350Z,15.40
2019-02-10T03:53:25.721Z,13.53
2019-02-10T03:55:56.158Z,13.53
2019-02-10T03:58:26.600Z,10.70
2019-02-10T04:00:56.983Z,14.10
2019-02-10T04:03:27.384Z,15.13
2019-02-10T04:05:58.143Z,11.27
2019-02-10T04:08:28.571Z,14.03
2019-02-10T04:10:59.051Z,17.50
2019-02-10T04:13:29.435Z,14.73
2019-02-10T04:15:59.857Z,13.90
2019-02-10T04:18:30.314Z,10.03
2019-02-10T04:21:01.189Z,11.47
2019-02-10T04:23:31.598Z,13.70
2019-02-10T04:26:01.936Z,10.57
2019-02-10T04:28:32.642Z,11.33
2019-02-10T04:31:02.957Z,11.50
2019-02-10T04:33:33.431Z,8.67
2019-02-10T04:36:03.712Z,10.50
2019-02-10T04:38:33.994Z,7.83
2019-02-10T04:41:04.739Z,11.77
2019-02-10T04:43:35.136Z,10.43
2019-02-10T04:46:05.603Z,13.30
2019-02-10T04:48:36.030Z,10.03
2019-02-10T04:51:08.145Z,10.73
2019-02-10T04:53:38.509Z,11.03
2019-02-10T04:56:16.580Z,8.20
2019-02-10T04:58:47.295Z,26.80
2019-02-10T05:01:20.687Z,11.07
2019-02-10T05:03:50.976Z,14.10
2019-02-10T05:06:21.360Z,12.37
2019-02-10T05:08:51.816Z,11.50
2019-02-10T05:11:22.148Z,15.43
2019-02-10T05:13:52.529Z,11.23
2019-02-10T05:16:22.895Z,12.73
2019-02-10T05:18:53.242Z,7.87
2019-02-10T05:21:23.686Z,10.60
2019-02-10T05:24:02.794Z,10.83
2019-02-10T05:26:26.239Z,11.80
2019-02-10T05:28:57.025Z,8.47
2019-02-10T05:31:27.372Z,11.60
2019-02-10T05:33:57.750Z,12.47
2019-02-10T05:36:28.127Z,8.37
2019-02-10T05:38:58.513Z,9.43
2019-02-10T05:41:28.878Z,9.93
2019-02-10T05:43:59.171Z,11.67
2019-02-10T05:46:29.557Z,12.67
2019-02-10T05:48:59.928Z,7.17
2019-02-10T05:51:30.337Z,11.63
2019-02-10T05:54:01.031Z,16.53
2019-02-10T05:56:31.442Z,12.10
2019-02-10T05:59:01.912Z,8.00
2019-02-10T06:01:59.525Z,7.43
2019-02-10T06:04:30.282Z,12.50
2019-02-10T06:07:03.091Z,11.60
2019-02-10T06:09:33.387Z,9.87
2019-02-10T06:12:03.747Z,12.87
2019-02-10T06:14:34.131Z,6.57
2019-02-10T06:17:04.507Z,11.57
2019-02-10T06:19:35.024Z,9.47
2019-02-10T06:22:05.345Z,13.90
2019-02-10T06:24:36.044Z,12.43
2019-02-10T06:27:06.409Z,4.97
2019-02-10T06:29:36.862Z,10.33
2019-02-10T06:32:07.319Z,12.43
2019-02-10T06:34:37.657Z,7.17
2019-02-10T06:37:08.180Z,9.90
2019-02-10T06:39:38.505Z,7.30
2019-02-10T06:42:09.289Z,8.33
2019-02-10T06:44:39.733Z,6.10
2019-02-10T06:47:10.030Z,6.90
2019-02-10T06:49:40.453Z,11.60
2019-02-10T06:52:10.774Z,9.77
2019-02-10T06:54:46.183Z,10.83
2019-02-10T06:57:16.639Z,9.87
2019-02-10T06:59:52.729Z,8.10
2019-02-10T07:02:32.805Z,12.93
2019-02-10T07:05:03.176Z,13.77
2019-02-10T07:07:33.571Z,15.80
2019-02-10T07:10:03.953Z,13.50
2019-02-10T07:12:52.490Z,8.13
2019-02-10T07:15:57.663Z,8.63
2019-02-10T07:19:02.717Z,7.63
2019-02-10T07:21:42.542Z,7.00
2019-02-10T07:25:03.184Z,7.83
2019-02-10T07:27:34.190Z,7.37
2019-02-10T07:30:43.995Z,8.50
2019-02-10T07:34:00.719Z,10.87
2019-02-10T07:37:10.902Z,11.50
2019-02-10T07:40:15.242Z,4.37
2019-02-10T07:43:07.974Z,8.77
2019-02-10T07:45:59.878Z,9.43
2019-02-10T07:48:48.948Z,7.53
2019-02-10T07:51:41.335Z,6.97
2019-02-10T07:54:27.156Z,6.53
2019-02-10T07:57:22.171Z,6.27
2019-02-10T08:00:45.720Z,4.43
2019-02-10T08:03:51.090Z,9.67
2019-02-10T08:07:10.892Z,16.37
2019-02-10T08:10:23.943Z,5.97
2019-02-10T08:13:17.477Z,6.87
2019-02-10T08:16:12.160Z,4.20
2019-02-10T08:19:24.355Z,7.13
2019-02-10T08:22:52.880Z,3.33
2019-02-10T08:25:52.492Z,4.53
2019-02-10T08:29:05.128Z,6.23
2019-02-10T08:32:26.097Z,4.60
2019-02-10T08:35:42.758Z,8.03
2019-02-10T08:38:29.877Z,7.63
2019-02-10T08:41:35.064Z,5.37
2019-02-10T08:44:46.712Z,3.33
2019-02-10T08:47:55.072Z,3.90
2019-02-10T08:50:54.219Z,4.47
2019-02-10T08:53:29.048Z,7.47
2019-02-10T08:55:59.477Z,4.77
2019-02-10T08:58:31.016Z,4.53
2019-02-10T09:01:01.432Z,4.27
2019-02-10T09:03:31.875Z,5.57
2019-02-10T09:06:02.323Z,6.37
2019-02-10T09:08:32.659Z,5.33
2019-02-10T09:11:03.020Z,2.90
2019-02-10T09:13:33.349Z,4.97
2019-02-10T09:16:03.863Z,4.13
2019-02-10T09:18:34.219Z,2.83
2019-02-10T09:21:07.254Z,2.73
2019-02-10T09:23:38.206Z,4.37
2019-02-10T09:26:09.233Z,2.97
2019-02-10T09:28:39.632Z,2.60
2019-02-10T09:31:10.471Z,3.93
2019-02-10T09:33:40.878Z,4.30
2019-02-10T09:36:11.836Z,4.57
2019-02-10T09:38:42.541Z,2.67
2019-02-10T09:41:13.125Z,4.03
2019-02-10T09:43:43.590Z,2.80
2019-02-10T09:46:14.378Z,3.73
2019-02-10T09:48:44.712Z,7.17
2019-02-10T09:51:15.433Z,6.83
2019-02-10T09:53:45.840Z,2.93
2019-02-10T09:56:16.183Z,3.20
2019-02-10T09:58:46.617Z,3.33
2019-02-10T10:01:17.768Z,3.57
2019-02-10T10:03:48.165Z,2.53
2019-02-10T10:06:18.619Z,3.17
2019-02-10T10:08:49.040Z,3.27
2019-02-10T10:11:24.686Z,4.43
2019-02-10T10:13:59.842Z,4.07
2019-02-10T10:16:30.331Z,2.97
2019-02-10T10:19:00.664Z,2.50
2019-02-10T10:21:30.996Z,2.83
2019-02-10T10:24:01.277Z,3.97
2019-02-10T10:26:31.906Z,5.40
2019-02-10T10:29:02.343Z,3.57
2019-02-10T10:31:35.003Z,2.50
2019-02-10T10:34:08.893Z,2.17
2019-02-10T10:36:43.695Z,3.00
2019-02-10T10:39:14.081Z,2.97
2019-02-10T10:41:44.495Z,2.47
2019-02-10T10:44:14.845Z,2.10
2019-02-10T10:46:47.042Z,2.10
2019-02-10T10:49:17.461Z,2.67
2019-02-10T10:51:47.941Z,2.70
2019-02-10T10:54:20.083Z,2.57
2019-02-10T10:56:53.679Z,2.30
2019-02-10T10:59:24.263Z,2.20
2019-02-10T11:01:54.749Z,2.33
2019-02-10T11:04:25.078Z,1.80
2019-02-10T11:06:55.516Z,3.73
2019-02-10T11:09:25.923Z,1.40
2019-02-10T11:11:56.376Z,1.90
2019-02-10T11:14:26.700Z,1.93
2019-02-10T11:16:57.692Z,1.90
2019-02-10T11:19:28.057Z,2.00
2019-02-10T11:21:59.153Z,5.13
2019-02-10T11:24:29.519Z,6.33
2019-02-10T11:27:00.435Z,21.37
2019-02-10T11:29:30.941Z,5.07
2019-02-10T11:32:01.341Z,29.97
2019-02-10T11:34:32.646Z,2.10
2019-02-10T11:37:03.914Z,14.60
2019-02-10T11:39:34.340Z,9.83
2019-02-10T11:42:36.214Z,2.80
2019-02-10T11:45:09.083Z,2.63
2019-02-10T11:47:40.481Z,16.07
2019-02-10T11:50:11.471Z,14.73
2019-02-10T11:52:42.992Z,10.60
2019-02-10T11:55:13.593Z,1.70
2019-02-10T11:57:44.135Z,2.40
2019-02-10T12:00:15.019Z,2.17
2019-02-10T12:02:45.509Z,3.43
2019-02-10T12:05:15.879Z,3.90
2019-02-10T12:07:49.719Z,2.43
2019-02-10T12:10:21.136Z,2.07
2019-02-10T12:12:52.341Z,1.73
2019-02-10T12:15:22.842Z,6.27
2019-02-10T12:17:53.888Z,4.23
2019-02-10T12:20:24.340Z,3.23
2019-02-10T12:22:54.780Z,4.23
2019-02-10T12:25:25.854Z,6.57
2019-02-10T12:27:56.639Z,2.43
2019-02-10T12:30:27.159Z,2.47
2019-02-10T12:32:57.858Z,1.90
2019-02-10T12:35:29.052Z,3.27
2019-02-10T12:38:00.339Z,2.27
2019-02-10T12:40:30.798Z,2.27
2019-02-10T12:43:03.177Z,2.07
2019-02-10T12:45:35.174Z,2.43
2019-02-10T12:48:06.631Z,2.23
2019-02-10T12:50:39.100Z,2.07
2019-02-10T12:53:09.633Z,2.20
2019-02-10T12:55:40.148Z,2.60
2019-02-10T12:58:11.332Z,2.10
2019-02-10T13:00:41.973Z,2.23
2019-02-10T13:03:12.822Z,2.30
2019-02-10T13:05:44.189Z,3.90
2019-02-10T13:08:14.754Z,2.37
2019-02-10T13:10:45.332Z,2.80
2019-02-10T13:13:19.309Z,3.93
2019-02-10T13:15:50.576Z,4.73
2019-02-10T13:18:23.052Z,2.20
2019-02-10T13:20:54.068Z,2.50
2019-02-10T13:23:24.827Z,3.50
2019-02-10T13:26:03.543Z,2.03
2019-02-10T13:28:34.173Z,3.43
2019-02-10T13:31:04.705Z,2.13
2019-02-10T13:33:35.455Z,2.83
2019-02-10T13:36:07.796Z,1.40
2019-02-10T13:38:38.302Z,5.37
2019-02-10T13:41:13.069Z,2.77
2019-02-10T13:43:44.087Z,11.33
2019-02-10T13:46:15.673Z,4.30
2019-02-10T13:48:46.256Z,2.10
2019-02-10T13:51:17.865Z,2.33
2019-02-10T13:53:48.733Z,1.70
2019-02-10T13:56:19.156Z,1.90
2019-02-10T13:58:49.561Z,3.73
2019-02-10T14:01:20.697Z,3.33
2019-02-10T14:03:51.355Z,4.33
2019-02-10T14:06:22.201Z,2.83
2019-02-10T14:12:21.774Z,2.77
2019-02-10T14:14:53.981Z,2.33
2019-02-10T14:17:24.604Z,2.20
2019-02-10T14:19:55.237Z,2.33
2019-02-10T14:22:25.909Z,3.83
2019-02-10T14:24:56.424Z,1.83
2019-02-10T14:27:26.930Z,1.97
2019-02-10T14:30:00.290Z,3.47
2019-02-10T14:32:32.024Z,2.07
2019-02-10T14:35:05.336Z,2.00
2019-02-10T14:37:36.412Z,1.80
2019-02-10T14:40:07.681Z,2.20
2019-02-10T14:42:38.832Z,1.87
2019-02-10T14:45:09.532Z,2.30
2019-02-10T14:47:41.146Z,1.63
2019-02-10T14:50:13.263Z,1.90
2019-02-10T14:52:43.918Z,2.80
2019-02-10T14:55:18.629Z,2.63
2019-02-10T14:57:50.034Z,3.30
2019-02-10T15:00:20.677Z,2.93
2019-02-10T15:02:51.581Z,2.70
2019-02-10T15:05:22.537Z,1.90
2019-02-10T15:07:56.254Z,2.03
2019-02-10T15:10:27.730Z,2.40
2019-02-10T15:13:00.982Z,2.30
2019-02-10T15:15:33.386Z,4.40
2019-02-10T15:18:05.386Z,2.40
2019-02-10T15:20:36.365Z,2.30
2019-02-10T15:23:07.907Z,3.17
2019-02-10T15:25:38.877Z,2.10
2019-02-10T15:28:12.856Z,3.57
2019-02-10T15:30:44.892Z,2.30
2019-02-10T15:33:15.628Z,2.80
2019-02-10T15:35:46.467Z,2.30
2019-02-10T15:38:20.365Z,2.83
2019-02-10T15:40:52.756Z,2.57
2019-02-10T15:43:23.620Z,1.70
2019-02-10T15:45:54.519Z,2.20
2019-02-10T15:48:42.501Z,2.33
2019-02-10T15:51:47.820Z,4.53
2019-02-10T15:58:01.385Z,1.93
2019-02-10T16:00:32.577Z,2.20
2019-02-10T16:03:04.092Z,2.47
2019-02-10T16:05:35.452Z,1.80
2019-02-10T16:08:07.854Z,5.80
2019-02-10T16:10:39.086Z,3.00
2019-02-10T16:13:11.437Z,4.60
2019-02-10T16:15:43.400Z,1.70
2019-02-10T16:18:14.660Z,4.60
2019-02-10T16:20:45.447Z,5.40
2019-02-10T16:23:16.481Z,2.37
2019-02-10T16:25:55.091Z,5.93
2019-02-10T16:28:26.158Z,10.33
2019-02-10T16:30:56.972Z,4.43
2019-02-10T16:33:27.546Z,4.73
2019-02-10T16:35:58.369Z,8.00
2019-02-10T16:38:29.109Z,1.90
2019-02-10T16:41:06.211Z,1.90
2019-02-10T16:43:32.983Z,2.80
2019-02-10T16:46:04.845Z,1.73
2019-02-10T16:48:35.820Z,5.03
2019-02-10T16:51:09.085Z,3.43
2019-02-10T16:53:40.389Z,1.60
2019-02-10T16:56:11.055Z,1.93
2019-02-10T16:58:45.692Z,2.77
2019-02-10T17:01:17.180Z,2.00
2019-02-10T17:03:47.908Z,1.80
2019-02-10T17:06:18.605Z,3.17
2019-02-10T17:08:49.321Z,3.43
2019-02-10T17:11:20.132Z,1.60
2019-02-10T17:13:50.804Z,2.10
2019-02-10T17:16:21.609Z,4.00
2019-02-10T17:18:53.883Z,2.30
2019-02-10T17:21:24.950Z,1.87
2019-02-10T17:23:57.726Z,1.93
2019-02-10T17:26:28.541Z,1.60
2019-02-10T17:28:59.712Z,2.07
2019-02-10T17:31:30.463Z,1.67
2019-02-10T17:34:01.344Z,1.37
2019-02-10T17:36:32.270Z,2.70
2019-02-10T17:39:03.789Z,2.03
2019-02-10T17:41:39.581Z,1.60
2019-02-10T17:44:10.832Z,2.27
2019-02-10T17:46:41.946Z,2.10
2019-02-10T17:49:12.570Z,2.03
2019-02-10T17:51:44.220Z,3.73
2019-02-10T17:54:15.767Z,2.67
2019-02-10T17:56:46.459Z,25.90
2019-02-10T17:59:17.231Z,18.77
2019-02-10T18:01:50.455Z,24.00
2019-02-10T18:04:21.811Z,18.47
2019-02-10T18:06:52.425Z,8.60
2019-02-10T18:09:23.814Z,11.77
2019-02-10T18:11:54.462Z,8.93
2019-02-10T18:14:52.834Z,15.40
2019-02-10T18:17:37.794Z,10.40
2019-02-10T18:20:34.079Z,3.30
2019-02-10T18:23:32.609Z,13.63
2019-02-10T18:26:27.883Z,9.80
2019-02-10T18:29:23.691Z,10.47
2019-02-10T18:32:16.242Z,4.80
2019-02-10T18:35:06.070Z,6.60
2019-02-10T18:38:01.981Z,4.10
2019-02-10T18:40:54.132Z,1.73
2019-02-10T18:43:47.179Z,2.00
2019-02-10T18:46:37.712Z,2.70
2019-02-10T18:49:20.267Z,1.53
2019-02-10T18:52:10.069Z,1.80
2019-02-10T18:55:05.558Z,1.90
2019-02-10T18:57:55.441Z,1.53
2019-02-10T19:00:38.044Z,1.73
2019-02-10T19:03:45.696Z,8.70
2019-02-10T19:06:33.173Z,6.27
2019-02-10T19:09:14.289Z,9.53
2019-02-10T19:12:15.726Z,7.00
2019-02-10T19:15:03.937Z,21.07
2019-02-10T19:17:45.258Z,3.33
2019-02-10T19:20:37.666Z,5.63
2019-02-10T19:23:17.340Z,2.87
2019-02-10T19:26:09.811Z,1.70
2019-02-10T19:28:53.124Z,1.53
2019-02-10T19:31:36.508Z,2.07
2019-02-10T19:34:44.081Z,2.63
2019-02-10T19:37:39.167Z,1.40
2019-02-10T19:40:35.458Z,3.10
2019-02-10T19:43:28.524Z,1.60
2019-02-10T19:46:24.116Z,1.40
2019-02-10T19:49:26.714Z,2.53
2019-02-10T19:52:12.926Z,1.40
2019-02-10T19:55:16.241Z,1.40
2019-02-10T19:58:06.460Z,1.30
2019-02-10T20:00:54.993Z,1.47
2019-02-10T20:03:51.957Z,2.20
2019-02-10T20:06:37.755Z,1.53
2019-02-10T20:09:40.462Z,1.37
2019-02-10T20:12:39.165Z,1.30
2019-02-10T20:15:16.812Z,1.33
2019-02-10T20:18:06.241Z,1.67
2019-02-10T20:20:55.651Z,1.37
2019-02-10T20:23:47.990Z,2.17
2019-02-10T20:26:37.657Z,1.40
2019-02-10T20:29:24.603Z,1.20
2019-02-10T20:32:29.040Z,1.10
2019-02-10T20:35:08.587Z,1.50
2019-02-10T20:38:00.657Z,1.30
2019-02-10T20:40:53.284Z,1.20
2019-02-10T20:43:48.369Z,1.40
2019-02-10T20:46:29.771Z,1.47
2019-02-10T20:49:21.985Z,1.57
2019-02-10T20:52:14.402Z,2.03
2019-02-10T20:55:02.119Z,1.30
2019-02-10T20:57:55.492Z,1.20
2019-02-10T21:00:51.191Z,1.37
2019-02-10T21:03:29.932Z,1.40
2019-02-10T21:06:37.912Z,1.33
2019-02-10T21:09:24.239Z,2.10
2019-02-10T21:12:20.699Z,1.40
2019-02-10T21:15:05.693Z,1.10
2019-02-10T21:17:53.343Z,1.30
2019-02-10T21:20:35.843Z,1.00
2019-02-10T21:23:11.931Z,1.20
2019-02-10T21:25:52.748Z,1.17
2019-02-10T21:28:35.102Z,1.30
2019-02-10T21:31:23.061Z,1.77
2019-02-10T21:34:12.470Z,1.00
2019-02-10T21:37:01.948Z,1.10
2019-02-10T21:39:39.016Z,1.20
2019-02-10T21:42:29.058Z,1.17
2019-02-10T21:45:25.642Z,1.40
2019-02-10T21:48:14.531Z,1.27
2019-02-10T21:50:45.836Z,1.10
2019-02-10T21:53:16.320Z,1.20
2019-02-10T21:55:46.997Z,0.93
2019-02-10T21:58:18.056Z,1.00
2019-02-10T22:00:54.203Z,1.10
2019-02-10T22:03:25.081Z,1.30
2019-02-10T22:05:55.815Z,1.37
2019-02-10T22:08:26.322Z,1.30
2019-02-10T22:10:56.851Z,1.20
2019-02-10T22:13:27.807Z,1.00
2019-02-10T22:15:58.826Z,1.70
2019-02-10T22:18:29.508Z,1.70
2019-02-10T22:21:01.122Z,1.10
2019-02-10T22:23:32.519Z,1.50
2019-02-10T22:26:08.365Z,2.03
2019-02-10T22:28:38.713Z,2.00
2019-02-10T22:31:09.252Z,1.30
2019-02-10T22:33:39.591Z,1.30
2019-02-10T22:36:12.203Z,4.40
2019-02-10T22:38:42.722Z,1.60
2019-02-10T22:41:13.133Z,1.17
2019-02-10T22:43:44.229Z,3.20
2019-02-10T22:46:15.965Z,1.50
2019-02-10T22:48:47.404Z,2.27
2019-02-10T22:51:17.884Z,1.70
2019-02-10T22:53:48.325Z,1.20
2019-02-10T22:56:19.863Z,1.20
2019-02-10T22:58:50.621Z,1.20
2019-02-10T23:01:21.208Z,1.50
2019-02-10T23:03:51.782Z,1.30
2019-02-10T23:06:22.425Z,1.30
2019-02-10T23:08:53.012Z,1.40
2019-02-10T23:11:23.501Z,1.20
2019-02-10T23:13:53.857Z,1.20
2019-02-10T23:16:24.735Z,1.20
2019-02-10T23:18:55.533Z,1.30
2019-02-10T23:21:26.092Z,1.13
2019-02-10T23:23:56.769Z,1.10
2019-02-10T23:26:27.162Z,1.00
2019-02-10T23:28:57.634Z,1.00
2019-02-10T23:31:28.413Z,1.20
2019-02-10T23:33:58.857Z,1.00
2019-02-10T23:36:29.412Z,1.13
2019-02-10T23:38:59.958Z,1.13
2019-02-10T23:41:30.334Z,1.00
2019-02-10T23:44:01.222Z,1.10
2019-02-10T23:46:31.700Z,1.20
2019-02-10T23:49:02.385Z,1.20
2019-02-10T23:51:32.736Z,1.40
2019-02-10T23:54:03.703Z,1.10
2019-02-10T23:56:34.267Z,1.13
2019-02-10T23:59:05.795Z,1.17
